Time;durP1;ratioP1;P1;durP2;ratioP2;P2;SDS_P1;SDS_P2;PMS_P1;PMS_P2;Temp;Humidity;BMP_temperature;BMP_pressure;BME280_temperature;BME280_humidity;BME280_pressure;Samples;Min_cycle;Max_cycle;Signal;HPM_P1;HPM_P2
2021/10/19 00:01:24;;;;;;;13.73;10.05;;;;;;;7.42;75.44;99642.94;2617945;54;20602;-64
2021/10/19 00:03:53;;;;;;;14.68;10.38;;;;;;;7.34;75.55;99640.25;2617341;54;20039;-64
2021/10/19 00:06:23;;;;;;;15.00;10.82;;;;;;;7.27;76.03;99647.13;2617949;54;20165;-65
2021/10/19 00:08:55;;;;;;;16.83;10.35;;;;;;;7.23;76.19;99655.47;2617842;54;20073;-64
2021/10/19 00:11:24;;;;;;;13.25;10.73;;;;;;;7.22;75.82;99648.53;2617954;54;20113;-64
2021/10/19 00:13:54;;;;;;;14.00;10.85;;;;;;;7.21;75.78;99647.69;2617724;54;20142;-65
2021/10/19 00:16:23;;;;;;;12.73;10.63;;;;;;;7.22;76.22;99641.44;2617885;54;20031;-66
2021/10/19 00:18:53;;;;;;;12.23;10.45;;;;;;;7.21;75.94;99631.91;2617827;54;20026;-65
2021/10/19 00:21:22;;;;;;;12.93;9.88;;;;;;;7.28;76.39;99635.59;2617137;54;20117;-65
2021/10/19 00:23:55;;;;;;;12.00;10.73;;;;;;;7.32;75.89;99636.97;2617819;39;20363;-65
2021/10/19 00:26:25;;;;;;;17.38;10.70;;;;;;;7.37;76.01;99639.13;2617393;54;20563;-66
2021/10/19 00:28:54;;;;;;;15.75;10.77;;;;;;;7.33;76.03;99643.03;2617961;54;20057;-65
2021/10/19 00:31:24;;;;;;;13.75;10.65;;;;;;;7.35;76.43;99643.72;2617894;54;20577;-65
2021/10/19 00:33:55;;;;;;;14.50;11.15;;;;;;;7.33;76.29;99649.13;2617221;54;20038;-65
2021/10/19 00:36:25;;;;;;;15.52;11.38;;;;;;;7.40;76.24;99637.03;2619263;54;20121;-65
2021/10/19 00:38:57;;;;;;;15.07;10.93;;;;;;;7.45;75.94;99647.09;2619364;54;20086;-65
2021/10/19 00:41:27;;;;;;;13.50;10.75;;;;;;;7.47;75.74;99645.16;2619654;47;20034;-65
2021/10/19 00:43:56;;;;;;;13.65;11.00;;;;;;;7.49;75.54;99644.97;2619819;54;20034;-64
2021/10/19 00:46:26;;;;;;;15.60;10.73;;;;;;;7.52;75.50;99636.78;2620954;54;20123;-64
2021/10/19 00:48:55;;;;;;;14.68;11.50;;;;;;;7.49;75.61;99631.84;2620781;54;20114;-64
2021/10/19 00:51:25;;;;;;;13.02;10.65;;;;;;;7.45;75.66;99626.03;2621241;54;20121;-65
2021/10/19 00:53:57;;;;;;;14.75;11.38;;;;;;;7.47;75.66;99624.09;2620731;54;20086;-65
2021/10/19 00:56:27;;;;;;;16.45;11.63;;;;;;;7.33;75.39;99630.72;2617987;54;20061;-65
2021/10/19 00:58:57;;;;;;;12.57;10.27;;;;;;;7.13;75.67;99631.84;2618215;54;20700;-65
2021/10/19 01:01:27;;;;;;;14.48;10.30;;;;;;;7.02;76.38;99621.53;2617834;54;20114;-64
2021/10/19 01:03:56;;;;;;;13.27;10.95;;;;;;;7.17;76.42;99623.50;2618239;39;20457;-64
2021/10/19 01:06:26;;;;;;;14.30;11.65;;;;;;;7.26;76.43;99610.41;2617528;47;20026;-65
2021/10/19 01:08:59;;;;;;;14.63;11.57;;;;;;;7.20;76.00;99609.25;2620696;54;20093;-65
2021/10/19 01:11:29;;;;;;;15.38;10.90;;;;;;;7.08;76.27;99610.44;2623898;54;20537;-65
2021/10/19 01:13:58;;;;;;;13.18;11.05;;;;;;;7.02;76.29;99618.91;2623260;54;20030;-65
2021/10/19 01:16:28;;;;;;;13.15;10.73;;;;;;;7.03;77.06;99610.06;2623424;47;20037;-65
2021/10/19 01:18:58;;;;;;;13.35;10.80;;;;;;;7.08;77.00;99613.06;2623252;47;20034;-66
2021/10/19 01:21:30;;;;;;;13.32;10.95;;;;;;;7.14;76.79;99625.59;2624208;54;20082;-65
2021/10/19 01:24:00;;;;;;;14.70;9.63;;;;;;;7.04;76.32;99633.56;2622584;54;20053;-65
2021/10/19 01:26:29;;;;;;;12.52;10.10;;;;;;;7.03;76.54;99637.19;2620207;54;20607;-66
2021/10/19 01:28:59;;;;;;;12.70;9.00;;;;;;;7.07;76.17;99627.19;2621802;54;20050;-65
2021/10/19 01:31:28;;;;;;;9.82;8.02;;;;;;;7.15;76.53;99624.66;2622352;54;20162;-65
2021/10/19 01:33:58;;;;;;;10.32;7.88;;;;;;;7.22;76.79;99616.97;2621351;54;20022;-67
2021/10/19 01:36:30;;;;;;;11.13;8.45;;;;;;;7.27;76.54;99615.56;2622348;54;20030;-66
2021/10/19 01:38:59;;;;;;;10.48;7.95;;;;;;;7.32;76.71;99601.94;2622134;54;20023;-66
2021/10/19 01:41:29;;;;;;;10.32;8.13;;;;;;;7.35;76.20;99601.66;2621028;54;20026;-65
2021/10/19 01:43:58;;;;;;;10.70;8.70;;;;;;;7.41;76.03;99588.69;2621771;54;20035;-65
2021/10/19 01:46:28;;;;;;;10.43;8.23;;;;;;;7.41;75.88;99595.75;2622156;31;20587;-66
2021/10/19 01:48:57;;;;;;;8.88;7.63;;;;;;;7.46;75.85;99601.38;2622346;54;20034;-66
2021/10/19 01:51:30;;;;;;;11.27;8.13;;;;;;;7.48;75.56;99602.06;2619220;54;20038;-66
2021/10/19 01:54:00;;;;;;;8.88;7.45;;;;;;;7.57;76.20;99595.88;2617799;54;20134;-66
2021/10/19 01:56:29;;;;;;;10.38;8.65;;;;;;;7.59;75.45;99593.09;2618541;54;20034;-66
2021/10/19 01:58:58;;;;;;;10.52;8.40;;;;;;;7.46;75.78;99580.34;2618237;39;20126;-66
2021/10/19 02:01:28;;;;;;;10.75;9.02;;;;;;;7.42;75.94;99585.06;2617762;54;20082;-66
2021/10/19 02:03:58;;;;;;;10.43;8.73;;;;;;;7.44;75.88;99577.88;2618583;54;20074;-66
2021/10/19 02:06:30;;;;;;;12.15;9.88;;;;;;;7.48;75.88;99577.56;2619176;54;20029;-66
2021/10/19 02:08:59;;;;;;;11.18;9.50;;;;;;;7.42;75.73;99579.00;2618927;54;20030;-65
2021/10/19 02:11:29;;;;;;;12.18;9.45;;;;;;;7.38;76.31;99581.09;2620358;39;20403;-66
2021/10/19 02:13:58;;;;;;;12.25;9.27;;;;;;;7.53;76.76;99581.38;2624419;54;20086;-66
2021/10/19 02:16:28;;;;;;;10.52;8.60;;;;;;;7.77;76.14;99582.53;2624147;54;20145;-66
2021/10/19 02:18:57;;;;;;;11.82;9.45;;;;;;;7.88;76.14;99571.75;2624064;54;20038;-66
2021/10/19 02:21:29;;;;;;;13.10;9.25;;;;;;;7.86;75.66;99571.06;2624105;54;20082;-66
2021/10/19 02:23:59;;;;;;;10.20;8.65;;;;;;;8.00;75.80;99573.13;2623791;54;20053;-66
2021/10/19 02:26:28;;;;;;;11.70;8.77;;;;;;;8.11;75.41;99572.81;2623549;47;20593;-66
2021/10/19 02:28:58;;;;;;;12.50;8.80;;;;;;;8.16;75.06;99569.72;2624289;54;20027;-66
2021/10/19 02:31:27;;;;;;;10.40;8.85;;;;;;;8.19;75.20;99561.50;2623998;54;20038;-65
2021/10/19 02:33:57;;;;;;;13.20;9.85;;;;;;;8.22;75.03;99566.47;2623051;47;20038;-65
2021/10/19 02:36:30;;;;;;;10.20;8.05;;;;;;;8.23;75.04;99562.00;2624117;54;20538;-65
2021/10/19 02:38:59;;;;;;;13.93;9.00;;;;;;;8.28;75.07;99560.53;2624116;54;20042;-66
2021/10/19 02:41:29;;;;;;;11.23;8.52;;;;;;;8.36;74.41;99555.28;2623660;54;20026;-66
2021/10/19 02:43:58;;;;;;;10.75;8.57;;;;;;;8.37;74.73;99549.09;2623058;47;20030;-66
2021/10/19 02:46:31;;;;;;;15.93;9.93;;;;;;;8.36;74.68;99551.84;2624541;54;20035;-66
2021/10/19 02:49:01;;;;;;;12.30;9.35;;;;;;;8.37;74.89;99546.47;2624518;54;20026;-66
2021/10/19 02:51:33;;;;;;;13.05;9.25;;;;;;;8.35;74.53;99556.28;2623677;47;20038;-66
2021/10/19 02:54:03;;;;;;;10.85;9.30;;;;;;;8.30;74.76;99550.69;2623773;54;20074;-66
2021/10/19 02:56:32;;;;;;;11.18;8.73;;;;;;;8.33;74.50;99547.72;2624399;54;20618;-67
2021/10/19 02:59:02;;;;;;;11.35;8.98;;;;;;;8.29;74.74;99551.69;2624429;54;20050;-67
2021/10/19 03:01:31;;;;;;;10.90;8.93;;;;;;;8.26;74.67;99546.72;2624121;54;20078;-68
2021/10/19 03:04:01;;;;;;;11.73;9.25;;;;;;;8.24;75.13;99553.94;2623846;54;20031;-66
2021/10/19 03:06:33;;;;;;;12.00;9.25;;;;;;;8.26;74.94;99551.16;2624255;54;20031;-66
2021/10/19 03:09:03;;;;;;;12.77;9.07;;;;;;;8.25;75.13;99545.06;2623746;54;20073;-66
2021/10/19 03:11:32;;;;;;;10.02;8.50;;;;;;;8.29;75.07;99550.84;2623781;54;20034;-66
2021/10/19 03:14:02;;;;;;;11.05;9.73;;;;;;;8.28;75.04;99557.91;2622768;54;20026;-66
2021/10/19 03:16:31;;;;;;;14.27;9.63;;;;;;;8.28;74.77;99557.09;2623578;54;20027;-66
2021/10/19 03:19:01;;;;;;;12.85;9.30;;;;;;;8.24;75.13;99569.75;2623487;54;20046;-68
2021/10/19 03:21:33;;;;;;;12.73;9.02;;;;;;;8.26;74.85;99551.97;2623529;31;20498;-68
2021/10/19 03:24:03;;;;;;;11.13;9.68;;;;;;;8.30;75.41;99569.13;2623234;54;20030;-65
2021/10/19 03:26:32;;;;;;;10.93;8.93;;;;;;;8.30;74.99;99569.13;2623526;54;20054;-66
2021/10/19 03:29:02;;;;;;;11.40;9.27;;;;;;;8.34;75.39;99578.34;2622650;54;20086;-66
2021/10/19 03:31:35;;;;;;;11.85;10.30;;;;;;;8.30;75.20;99577.03;2622483;54;20050;-65
2021/10/19 03:34:05;;;;;;;11.18;9.77;;;;;;;8.30;75.93;99577.03;2621700;39;20415;-66
2021/10/19 03:36:37;;;;;;;10.48;9.07;;;;;;;8.37;76.05;99585.16;2620381;54;20034;-66
2021/10/19 03:39:07;;;;;;;11.10;9.23;;;;;;;8.35;76.31;99580.00;2619304;47;20150;-65
2021/10/19 03:41:36;;;;;;;12.02;9.45;;;;;;;8.41;76.15;99584.69;2620041;54;20134;-66
2021/10/19 03:44:06;;;;;;;11.60;10.05;;;;;;;8.42;75.75;99583.69;2620586;54;20070;-66
2021/10/19 03:46:36;;;;;;;15.63;10.68;;;;;;;8.42;76.29;99567.88;2623775;54;20066;-65
2021/10/19 03:49:05;;;;;;;12.52;9.85;;;;;;;8.45;76.15;99572.00;2624094;54;20042;-65
2021/10/19 03:51:37;;;;;;;14.02;11.07;;;;;;;8.51;76.01;99574.00;2624084;54;20035;-65
2021/10/19 03:54:07;;;;;;;13.18;9.90;;;;;;;8.48;75.80;99576.94;2623826;54;20034;-66
2021/10/19 03:56:36;;;;;;;11.75;9.80;;;;;;;8.49;76.53;99578.63;2624280;54;20550;-66
2021/10/19 03:59:06;;;;;;;11.50;10.27;;;;;;;8.49;76.31;99573.34;2623698;47;20034;-66
2021/10/19 04:01:35;;;;;;;13.70;10.55;;;;;;;8.56;76.30;99576.13;2624346;54;20074;-65
2021/10/19 04:04:05;;;;;;;12.85;11.00;;;;;;;8.52;76.53;99575.63;2623972;54;20027;-66
2021/10/19 04:06:38;;;;;;;15.90;10.40;;;;;;;8.52;76.51;99578.28;2623983;54;20042;-66
2021/10/19 04:09:08;;;;;;;14.85;11.07;;;;;;;8.51;76.10;99579.25;2623319;54;20031;-66
2021/10/19 04:11:37;;;;;;;14.93;11.70;;;;;;;8.41;76.62;99578.59;2623399;54;20781;-66
2021/10/19 04:14:07;;;;;;;11.65;10.45;;;;;;;8.35;76.65;99566.81;2623376;54;20030;-66
2021/10/19 04:16:37;;;;;;;13.88;10.52;;;;;;;8.29;77.15;99574.56;2623627;54;20090;-66
2021/10/19 04:19:07;;;;;;;12.07;10.50;;;;;;;8.27;77.03;99568.59;2623332;54;20026;-66
2021/10/19 04:21:41;;;;;;;12.88;10.10;;;;;;;8.29;77.58;99574.56;2623129;51;20041;-65
2021/10/19 04:24:11;;;;;;;13.30;9.75;;;;;;;8.37;77.68;99566.72;2623249;54;20030;-66
2021/10/19 04:26:40;;;;;;;12.00;10.07;;;;;;;8.44;77.75;99576.44;2623783;54;20049;-67
2021/10/19 04:29:10;;;;;;;13.70;10.75;;;;;;;8.48;77.91;99578.75;2624179;54;20082;-66
2021/10/19 04:31:41;;;;;;;13.35;10.55;;;;;;;8.55;77.86;99583.22;2624726;54;20561;-66
2021/10/19 04:34:11;;;;;;;16.67;11.13;;;;;;;8.61;77.56;99584.38;2623571;54;20030;-67
2021/10/19 04:36:43;;;;;;;12.60;10.27;;;;;;;8.66;77.65;99576.84;2623461;54;20057;-67
2021/10/19 04:39:13;;;;;;;13.48;10.57;;;;;;;8.73;77.50;99577.00;2624080;54;20019;-64
2021/10/19 04:41:46;;;;;;;12.45;9.52;;;;;;;8.78;77.30;99572.91;2623820;54;20588;-65
2021/10/19 04:44:16;;;;;;;16.42;13.35;;;;;;;8.82;77.41;99561.06;2622859;54;20163;-66
2021/10/19 04:46:45;;;;;;;15.27;11.65;;;;;;;8.79;77.41;99561.38;2623169;54;20042;-66
2021/10/19 04:49:15;;;;;;;14.02;11.88;;;;;;;8.73;78.05;99567.28;2622487;54;20034;-66
2021/10/19 04:51:47;;;;;;;18.63;13.85;;;;;;;8.74;78.30;99570.75;2622378;54;20034;-65
2021/10/19 04:54:17;;;;;;;14.05;11.32;;;;;;;8.70;77.93;99570.25;2622971;54;20584;-64
2021/10/19 04:56:47;;;;;;;14.60;11.82;;;;;;;8.57;78.17;99560.19;2623218;54;20042;-67
2021/10/19 04:59:16;;;;;;;16.13;12.95;;;;;;;8.58;78.56;99561.00;2623860;54;20038;-65
2021/10/19 05:01:46;;;;;;;14.00;12.15;;;;;;;8.49;78.96;99557.53;2623419;54;20042;-67
2021/10/19 05:04:16;;;;;;;15.20;12.68;;;;;;;8.44;79.21;99558.00;2624689;39;20429;-68
2021/10/19 05:06:48;;;;;;;16.42;12.65;;;;;;;8.47;79.27;99548.13;2623476;54;20038;-67
2021/10/19 05:09:18;;;;;;;18.30;12.77;;;;;;;8.57;79.62;99544.38;2624212;39;20437;-67
2021/10/19 05:11:48;;;;;;;17.67;12.55;;;;;;;8.58;79.41;99553.91;2623705;54;20089;-65
2021/10/19 05:14:17;;;;;;;13.70;11.88;;;;;;;8.62;79.49;99564.97;2623570;54;20103;-65
2021/10/19 05:16:48;;;;;;;15.23;11.32;;;;;;;8.62;79.66;99562.34;2623733;54;20034;-65
2021/10/19 05:19:18;;;;;;;15.05;11.45;;;;;;;8.75;79.80;99567.13;2623997;54;20038;-66
2021/10/19 05:21:50;;;;;;;18.95;13.23;;;;;;;8.82;79.79;99552.31;2623910;54;20132;-65
2021/10/19 05:24:19;;;;;;;17.00;12.85;;;;;;;8.81;79.23;99556.75;2624370;54;20031;-65
2021/10/19 05:26:49;;;;;;;17.95;12.77;;;;;;;8.80;79.75;99552.47;2624307;54;20031;-64
2021/10/19 05:29:21;;;;;;;15.18;12.23;;;;;;;8.79;79.93;99550.81;2624184;54;20026;-64
2021/10/19 05:31:51;;;;;;;14.52;12.25;;;;;;;8.83;79.88;99553.97;2624345;54;20031;-67
2021/10/19 05:34:21;;;;;;;14.38;12.38;;;;;;;8.86;80.17;99554.47;2623352;54;20081;-64
2021/10/19 05:36:53;;;;;;;15.07;12.13;;;;;;;8.86;80.35;99558.91;2623327;47;20034;-65
2021/10/19 05:39:23;;;;;;;18.73;12.93;;;;;;;8.87;80.30;99547.38;2623641;54;20022;-65
2021/10/19 05:41:53;;;;;;;16.45;12.18;;;;;;;8.93;80.73;99557.25;2622813;54;20070;-65
2021/10/19 05:44:23;;;;;;;16.55;12.25;;;;;;;9.10;80.49;99555.44;2623558;54;20030;-64
2021/10/19 05:46:52;;;;;;;14.18;11.82;;;;;;;9.24;80.05;99554.00;2623294;54;20046;-65
2021/10/19 05:49:22;;;;;;;19.20;13.02;;;;;;;9.27;79.58;99543.09;2623990;54;20037;-65
2021/10/19 05:51:58;;;;;;;16.35;12.40;;;;;;;9.22;79.90;99543.59;2623825;54;20094;-65
2021/10/19 05:54:28;;;;;;;14.55;11.77;;;;;;;9.28;79.99;99539.47;2623863;54;20037;-65
2021/10/19 05:56:58;;;;;;;21.40;13.73;;;;;;;9.28;80.12;99532.38;2623000;54;20059;-65
2021/10/19 05:59:27;;;;;;;14.75;11.98;;;;;;;9.30;80.41;99535.66;2623149;54;20038;-65
2021/10/19 06:01:59;;;;;;;17.63;13.90;;;;;;;9.30;79.88;99521.66;2623361;54;20045;-65
2021/10/19 06:04:29;;;;;;;17.33;13.13;;;;;;;9.17;80.25;99528.25;2623534;54;20041;-65
2021/10/19 06:07:02;;;;;;;16.70;12.57;;;;;;;9.07;80.87;99534.69;2623807;54;20022;-65
2021/10/19 06:09:32;;;;;;;18.38;12.57;;;;;;;9.15;80.87;99553.16;2623380;54;20038;-65
2021/10/19 06:12:02;;;;;;;15.43;12.48;;;;;;;9.23;80.85;99542.63;2623719;54;20034;-66
2021/10/19 06:14:32;;;;;;;18.75;14.48;;;;;;;9.24;80.27;99533.69;2621369;39;20442;-67
2021/10/19 06:17:01;;;;;;;18.17;13.88;;;;;;;9.16;80.38;99529.25;2622137;54;20035;-65
2021/10/19 06:19:31;;;;;;;19.75;14.63;;;;;;;9.12;80.88;99527.13;2623201;54;20037;-66
2021/10/19 06:22:03;;;;;;;19.33;12.27;;;;;;;9.14;81.21;99531.25;2623384;54;20018;-65
2021/10/19 06:24:33;;;;;;;16.55;14.05;;;;;;;9.18;81.40;99532.56;2623136;54;20034;-66
2021/10/19 06:27:02;;;;;;;17.42;12.18;;;;;;;9.28;81.75;99535.03;2619220;54;20038;-66
2021/10/19 06:29:32;;;;;;;18.73;13.30;;;;;;;9.43;81.59;99536.00;2622535;54;20553;-64
2021/10/19 06:32:01;;;;;;;22.27;16.42;;;;;;;9.53;81.04;99527.88;2622548;54;20031;-65
2021/10/19 06:34:31;;;;;;;23.83;17.52;;;;;;;9.54;81.11;99526.06;2622225;54;20050;-65
2021/10/19 06:37:03;;;;;;;22.33;14.60;;;;;;;9.50;80.71;99530.84;2622926;54;20027;-65
2021/10/19 06:39:33;;;;;;;18.45;14.85;;;;;;;9.49;81.39;99520.47;2622470;54;20019;-65
2021/10/19 06:42:02;;;;;;;20.27;14.35;;;;;;;9.47;81.37;99520.66;2622805;54;20030;-66
2021/10/19 06:44:32;;;;;;;18.60;15.10;;;;;;;9.48;81.84;99522.28;2622491;54;20600;-66
2021/10/19 06:47:15;;;;;;;19.35;14.45;;;;;;;9.49;82.05;99523.94;2623988;39;20417;-66
2021/10/19 06:49:46;;;;;;;20.08;14.82;;;;;;;9.49;82.02;99526.56;2623047;54;20569;-66
2021/10/19 06:52:18;;;;;;;17.13;13.30;;;;;;;9.62;82.39;99539.25;2623158;54;20038;-66
2021/10/19 06:54:47;;;;;;;21.30;14.05;;;;;;;9.74;82.46;99535.25;2622239;54;20030;-65
2021/10/19 06:57:17;;;;;;;20.23;14.35;;;;;;;9.87;82.53;99526.81;2621891;54;20034;-66
2021/10/19 06:59:47;;;;;;;19.60;14.55;;;;;;;9.96;82.91;99525.81;2622617;54;20041;-65
2021/10/19 07:02:17;;;;;;;22.50;16.20;;;;;;;10.03;82.67;99516.19;2622804;54;20034;-65
2021/10/19 07:04:47;;;;;;;18.52;14.80;;;;;;;10.04;82.58;99511.72;2622000;39;20411;-65
2021/10/19 07:07:19;;;;;;;22.58;17.52;;;;;;;10.05;82.63;99508.91;2618894;48;20034;-66
2021/10/19 07:09:49;;;;;;;22.30;16.42;;;;;;;10.01;82.68;99507.63;2616424;54;20038;-65
2021/10/19 07:12:19;;;;;;;23.52;18.77;;;;;;;10.09;82.52;99493.56;2617309;54;20557;-65
2021/10/19 07:14:50;;;;;;;21.13;16.02;;;;;;;10.14;82.85;99496.50;2618081;54;20014;-65
2021/10/19 07:17:20;;;;;;;17.67;13.57;;;;;;;10.20;83.32;99498.44;2618277;31;20513;-65
2021/10/19 07:19:49;;;;;;;18.17;15.02;;;;;;;10.35;83.62;99498.56;2617895;54;20135;-65
2021/10/19 07:22:25;;;;;;;19.33;14.13;;;;;;;10.47;83.43;99502.44;2617937;54;20038;-65
2021/10/19 07:24:55;;;;;;;17.25;13.05;;;;;;;10.55;83.68;99498.94;2618006;54;20043;-65
2021/10/19 07:27:25;;;;;;;15.82;12.70;;;;;;;10.68;84.01;99487.78;2618050;54;20126;-65
2021/10/19 07:29:55;;;;;;;18.42;14.73;;;;;;;10.81;84.13;99485.34;2617400;54;20023;-65
2021/10/19 07:32:25;;;;;;;15.70;13.65;;;;;;;10.91;83.95;99489.41;2617819;54;20057;-65
2021/10/19 07:34:55;;;;;;;14.15;11.60;;;;;;;11.00;84.48;99502.56;2618045;54;20049;-65
2021/10/19 07:37:27;;;;;;;15.30;12.10;;;;;;;11.09;84.59;99507.59;2617972;54;20073;-65
2021/10/19 07:39:57;;;;;;;17.85;12.93;;;;;;;11.17;85.05;99504.06;2618139;54;20065;-65
2021/10/19 07:42:26;;;;;;;16.33;13.98;;;;;;;11.27;85.03;99509.94;2618058;54;20034;-65
2021/10/19 07:44:56;;;;;;;15.45;13.13;;;;;;;11.38;85.64;99506.84;2617684;54;20049;-65
2021/10/19 07:47:26;;;;;;;18.52;14.23;;;;;;;11.49;85.93;99505.59;2618216;54;20046;-66
2021/10/19 07:49:55;;;;;;;16.95;13.85;;;;;;;11.57;86.03;99496.72;2617784;54;20038;-66
2021/10/19 07:52:28;;;;;;;19.00;14.70;;;;;;;11.71;86.05;99498.56;2617395;54;20055;-66
2021/10/19 07:54:57;;;;;;;16.88;14.10;;;;;;;11.76;85.97;99490.91;2617815;54;20035;-66
2021/10/19 07:57:27;;;;;;;19.10;14.77;;;;;;;11.84;85.77;99497.97;2617874;54;20065;-66
2021/10/19 07:59:56;;;;;;;20.00;14.25;;;;;;;11.91;85.98;99498.84;2617103;54;20042;-66
2021/10/19 08:02:26;;;;;;;17.17;14.25;;;;;;;11.99;85.61;99500.59;2616940;54;20034;-66
2021/10/19 11:00:04;;;;;;;8.68;7.57;;;;;;;16.02;71.92;99470.72;2594089;54;20041;-66
2021/10/19 11:02:33;;;;;;;9.63;7.13;;;;;;;16.21;71.34;99461.84;2617234;47;20022;-66
2021/10/19 11:05:03;;;;;;;8.73;7.82;;;;;;;16.32;71.40;99458.47;2618277;54;20600;-66
2021/10/19 11:07:36;;;;;;;7.13;6.43;;;;;;;16.49;71.00;99468.63;2618255;54;20038;-67
2021/10/19 11:10:11;;;;;;;8.67;7.77;;;;;;;16.53;70.25;99462.69;2618541;54;20037;-65
2021/10/19 11:12:41;;;;;;;9.05;7.18;;;;;;;16.50;70.17;99454.28;2618500;54;20027;-64
2021/10/19 11:15:19;;;;;;;10.35;7.38;;;;;;;16.46;70.24;99459.22;2618347;54;20557;-64
2021/10/19 11:17:50;;;;;;;9.05;7.07;;;;;;;16.39;69.97;99462.97;2618319;54;20030;-64
2021/10/19 11:20:20;;;;;;;8.20;6.97;;;;;;;16.33;70.39;99457.47;2618197;54;20058;-64
2021/10/19 11:22:51;;;;;;;9.63;7.13;;;;;;;16.23;70.83;99459.75;2618038;54;20035;-64
2021/10/19 11:25:22;;;;;;;8.30;7.10;;;;;;;16.21;70.69;99451.16;2617932;54;20037;-64
2021/10/19 11:27:53;;;;;;;9.38;8.23;;;;;;;16.16;70.80;99450.16;2617419;54;20034;-64
2021/10/19 11:30:27;;;;;;;8.23;7.43;;;;;;;16.19;70.70;99450.53;2617555;54;20034;-65
2021/10/19 11:32:56;;;;;;;;;;;;;;;16.16;70.64;99447.47;2618075;54;20034;-65
2021/10/19 11:35:28;;;;;;;10.25;8.88;;;;;;;16.15;71.15;99444.00;2618365;54;19938;-65
2021/10/19 11:37:57;;;;;;;12.38;11.07;;;;;;;16.13;70.83;99440.75;2618281;54;20042;-65
2021/10/19 11:40:28;;;;;;;15.60;11.63;;;;;;;16.17;71.25;99433.94;2618388;39;20466;-65
2021/10/19 11:42:58;;;;;;;10.98;8.45;;;;;;;16.21;71.41;99437.00;2617626;47;20054;-66
2021/10/19 11:45:30;;;;;;;10.35;8.88;;;;;;;16.30;70.96;99433.06;2618389;54;20037;-65
2021/10/19 11:48:05;;;;;;;10.93;8.07;;;;;;;16.33;71.33;99430.78;2618440;54;20034;-66
2021/10/19 11:50:38;;;;;;;10.07;7.10;;;;;;;16.39;70.93;99433.59;2618214;54;20145;-65
2021/10/19 11:53:11;;;;;;;9.57;8.30;;;;;;;16.38;70.90;99432.78;2617366;47;20038;-65
2021/10/19 11:55:41;;;;;;;10.18;8.13;;;;;;;16.37;70.42;99425.84;2618521;54;20030;-65
2021/10/19 11:58:11;;;;;;;7.68;6.97;;;;;;;16.42;71.00;99426.00;2618383;54;20026;-65
2021/10/19 12:00:45;;;;;;;9.95;7.43;;;;;;;16.45;70.63;99432.72;2618591;54;20042;-65
2021/10/19 12:03:15;;;;;;;9.38;7.78;;;;;;;16.53;70.64;99430.66;2620247;54;20033;-66
2021/10/19 12:05:45;;;;;;;9.52;7.88;;;;;;;16.55;70.05;99431.25;2620847;54;20137;-66
2021/10/19 12:08:15;;;;;;;9.90;8.85;;;;;;;16.62;69.30;99425.06;2619972;54;20037;-65
2021/10/19 12:10:50;;;;;;;9.30;8.25;;;;;;;16.87;69.54;99422.41;2620148;54;20046;-65
2021/10/19 12:13:19;;;;;;;8.95;7.68;;;;;;;17.00;68.42;99423.13;2619423;47;20546;-65
2021/10/19 12:15:59;;;;;;;12.13;8.63;;;;;;;17.10;67.78;99414.59;2620267;54;20034;-65
2021/10/19 12:18:28;;;;;;;9.80;8.73;;;;;;;17.05;68.09;99414.44;2620199;39;20483;-64
2021/10/19 12:21:04;;;;;;;10.13;7.78;;;;;;;17.02;68.02;99409.53;2619527;54;20038;-65
2021/10/19 12:23:34;;;;;;;8.07;7.30;;;;;;;16.92;67.57;99409.22;2620302;54;20026;-65
2021/10/19 12:26:07;;;;;;;11.75;8.63;;;;;;;17.06;67.78;99405.38;2619831;47;20031;-65
2021/10/19 12:28:37;;;;;;;;;;;;;;;17.11;67.21;99400.22;2620335;54;20039;-65
2021/10/19 12:31:09;;;;;;;18.30;7.20;;;;;;;17.09;66.90;99400.41;2620387;54;19942;-64
2021/10/19 12:33:40;;;;;;;7.85;6.93;;;;;;;17.23;67.62;99400.31;2620303;47;20036;-65
2021/10/19 12:36:11;;;;;;;9.18;7.75;;;;;;;17.39;67.02;99388.19;2619870;54;20037;-65
2021/10/19 12:38:44;;;;;;;9.82;7.30;;;;;;;17.41;66.89;99383.47;2619622;47;20081;-66
2021/10/19 12:41:17;;;;;;;10.15;7.80;;;;;;;17.41;66.95;99378.94;2620372;54;20038;-65
2021/10/19 12:43:52;;;;;;;9.25;8.27;;;;;;;17.54;66.48;99372.63;2619858;54;20041;-65
2021/10/19 12:46:26;;;;;;;10.73;8.30;;;;;;;17.63;66.38;99371.25;2621265;54;20041;-65
2021/10/19 12:48:58;;;;;;;9.35;6.63;;;;;;;17.70;65.61;99361.31;2621748;39;20426;-65
2021/10/19 12:51:31;;;;;;;12.95;7.90;;;;;;;17.74;65.52;99359.84;2620902;54;20042;-65
2021/10/19 12:54:01;;;;;;;;;;;;;;;17.78;65.79;99355.69;2620299;39;20433;-65
2021/10/19 12:56:34;;;;;;;11.90;8.80;;;;;;;17.86;65.45;99356.41;2620467;54;20011;-65
2021/10/19 12:59:06;;;;;;;13.80;8.27;;;;;;;17.93;64.97;99351.81;2620789;54;20045;-65
2021/10/19 13:01:38;;;;;;;9.38;7.43;;;;;;;17.92;64.61;99351.00;2621099;54;20019;-64
2021/10/19 13:04:08;;;;;;;8.63;7.72;;;;;;;17.97;65.04;99353.78;2620369;39;20415;-65
2021/10/19 13:06:38;;;;;;;9.35;8.13;;;;;;;17.99;64.79;99338.31;2620542;39;20441;-65
2021/10/19 13:09:08;;;;;;;13.35;10.95;;;;;;;18.03;64.95;99336.81;2621413;54;20039;-65
2021/10/19 13:11:37;;;;;;;8.82;7.47;;;;;;;18.11;64.82;99337.53;2621801;54;20031;-66
2021/10/19 13:14:07;;;;;;;11.30;7.10;;;;;;;18.18;64.37;99332.91;2621592;54;20034;-65
2021/10/19 13:16:40;;;;;;;10.57;8.68;;;;;;;18.23;64.19;99330.34;2621348;54;20034;-65
2021/10/19 13:19:09;;;;;;;9.20;7.55;;;;;;;18.36;64.02;99332.00;2622756;39;20459;-65
2021/10/19 13:21:39;;;;;;;10.18;8.90;;;;;;;18.45;63.85;99328.78;2622448;54;20038;-65
2021/10/19 13:24:09;;;;;;;8.82;7.93;;;;;;;18.55;63.48;99341.59;2621816;54;20565;-64
2021/10/19 13:26:40;;;;;;;12.63;11.05;;;;;;;18.64;63.30;99324.13;2621198;54;20108;-65
2021/10/19 13:29:10;;;;;;;7.20;6.50;;;;;;;18.72;63.06;99331.84;2621555;54;20106;-65
2021/10/19 13:31:42;;;;;;;9.70;6.35;;;;;;;18.80;62.46;99336.03;2622139;54;20027;-66
2021/10/19 13:34:13;;;;;;;11.07;7.03;;;;;;;18.84;62.29;99325.69;2621532;47;20049;-64
2021/10/19 13:36:44;;;;;;;8.65;7.70;;;;;;;18.94;62.50;99328.56;2623008;54;20050;-64
2021/10/19 13:39:13;;;;;;;8.90;7.95;;;;;;;19.04;62.07;99336.84;2623066;54;20034;-64
2021/10/19 13:41:44;;;;;;;6.80;6.18;;;;;;;19.05;61.38;99327.75;2622663;54;20035;-65
2021/10/19 13:44:13;;;;;;;7.07;6.38;;;;;;;19.10;60.89;99321.69;2622355;47;20538;-65
2021/10/19 13:46:46;;;;;;;7.55;6.72;;;;;;;19.17;61.17;99331.22;2623039;54;20041;-64
2021/10/19 13:49:16;;;;;;;9.27;7.57;;;;;;;19.10;60.87;99327.84;2622849;54;20035;-65
2021/10/19 13:51:45;;;;;;;9.10;6.05;;;;;;;19.03;61.08;99330.69;2621077;39;20422;-64
2021/10/19 13:54:15;;;;;;;6.78;6.07;;;;;;;18.93;61.03;99329.63;2619790;54;20057;-64
2021/10/19 13:56:45;;;;;;;8.25;5.82;;;;;;;18.94;60.96;99336.59;2619810;54;20034;-64
2021/10/19 13:59:15;;;;;;;7.30;6.13;;;;;;;18.86;60.87;99339.63;2620861;54;20031;-64
2021/10/19 14:01:47;;;;;;;6.30;5.70;;;;;;;18.78;61.60;99335.47;2619629;54;20018;-64
2021/10/19 14:04:18;;;;;;;7.68;6.40;;;;;;;18.83;61.72;99332.09;2618407;54;20035;-64
2021/10/19 14:06:49;;;;;;;9.68;7.78;;;;;;;18.80;61.64;99322.66;2618632;54;20034;-64
2021/10/19 14:09:19;;;;;;;7.28;6.57;;;;;;;18.80;61.95;99323.47;2618732;54;20026;-64
2021/10/19 14:11:48;;;;;;;7.80;6.60;;;;;;;18.87;61.57;99322.53;2618902;54;20550;-64
2021/10/19 14:14:18;;;;;;;7.82;6.90;;;;;;;18.88;61.70;99316.13;2618555;54;20038;-65
2021/10/19 14:16:52;;;;;;;6.65;6.05;;;;;;;18.87;61.57;99309.16;2618408;54;20554;-64
2021/10/19 14:19:22;;;;;;;9.70;6.63;;;;;;;18.87;61.24;99318.00;2618661;54;20042;-64
2021/10/19 14:21:56;;;;;;;10.40;7.05;;;;;;;18.82;61.02;99317.88;2618382;47;20041;-64
2021/10/19 14:24:25;;;;;;;9.60;7.15;;;;;;;18.77;61.37;99310.53;2618363;54;20858;-64
2021/10/19 14:26:55;;;;;;;9.48;7.38;;;;;;;18.80;61.03;99306.56;2617790;47;20023;-64
2021/10/19 14:29:25;;;;;;;6.43;5.82;;;;;;;18.77;61.07;99309.72;2618533;47;20038;-65
2021/10/19 14:31:57;;;;;;;6.60;5.95;;;;;;;18.82;61.00;99301.81;2618202;54;20038;-65
2021/10/19 14:34:27;;;;;;;9.05;6.35;;;;;;;18.93;61.01;99297.47;2618671;54;20026;-64
2021/10/19 14:36:57;;;;;;;7.32;5.50;;;;;;;18.97;60.71;99304.00;2618493;54;20061;-64
2021/10/19 14:39:28;;;;;;;7.97;5.93;;;;;;;18.91;60.97;99294.25;2618402;54;20062;-65